createdAt,value
2024-03-07T00:01:51.281Z,4.96
2024-03-07T00:04:20.018Z,4.95
2024-03-07T00:06:49.732Z,4.94
2024-03-07T00:09:18.174Z,4.98
2024-03-07T00:11:46.666Z,5.02
2024-03-07T00:14:15.087Z,5.06
2024-03-07T00:16:43.505Z,5.03
2024-03-07T00:19:12.011Z,4.96
2024-03-07T00:21:40.405Z,4.92
2024-03-07T00:24:09.599Z,4.86
2024-03-07T00:26:38.183Z,4.80
2024-03-07T00:29:07.969Z,4.72
2024-03-07T00:31:36.259Z,4.65
2024-03-07T00:34:10.336Z,4.64
2024-03-07T00:36:45.016Z,4.68
2024-03-07T00:39:13.578Z,4.71
2024-03-07T00:41:42.759Z,4.71
2024-03-07T00:44:11.331Z,4.66
2024-03-07T00:46:39.696Z,4.61
2024-03-07T00:49:07.986Z,4.54
2024-03-07T00:51:38.159Z,4.40
2024-03-07T00:54:08.573Z,4.31
2024-03-07T00:56:37.792Z,4.22
2024-03-07T00:59:06.883Z,4.13
2024-03-07T01:01:37.632Z,4.07
2024-03-07T01:04:06.384Z,4.04
2024-03-07T01:06:35.649Z,4.05
2024-03-07T01:09:04.706Z,4.06
2024-03-07T01:11:33.140Z,4.06
2024-03-07T01:14:01.484Z,4.10
2024-03-07T01:16:29.826Z,4.08
2024-03-07T01:18:59.182Z,4.02
2024-03-07T01:21:27.658Z,3.98
2024-03-07T01:23:56.068Z,3.95
2024-03-07T01:26:26.120Z,3.94
2024-03-07T01:28:56.104Z,3.90
2024-03-07T01:31:25.052Z,3.92
2024-03-07T01:33:53.503Z,3.98
2024-03-07T01:36:22.087Z,4.02
2024-03-07T01:38:50.469Z,4.05
2024-03-07T01:41:19.444Z,4.09
2024-03-07T01:43:47.804Z,4.01
2024-03-07T01:46:16.239Z,3.90
2024-03-07T01:48:45.130Z,3.82
2024-03-07T01:51:13.767Z,3.72
2024-03-07T01:53:42.481Z,3.69
2024-03-07T01:56:12.094Z,3.66
2024-03-07T01:58:41.036Z,3.62
2024-03-07T02:01:09.556Z,3.61
2024-03-07T02:03:38.190Z,3.62
2024-03-07T02:06:06.896Z,3.65
2024-03-07T02:08:36.199Z,3.62
2024-03-07T02:11:05.126Z,3.64
2024-03-07T02:13:33.537Z,3.60
2024-03-07T02:16:02.358Z,3.52
2024-03-07T02:18:30.649Z,3.48
2024-03-07T02:20:59.800Z,3.41
2024-03-07T02:23:29.127Z,3.39
2024-03-07T02:26:00.264Z,3.37
2024-03-07T02:28:30.218Z,3.29
2024-03-07T02:30:58.593Z,3.23
2024-03-07T02:33:27.226Z,3.22
2024-03-07T02:35:55.805Z,3.23
2024-03-07T02:38:24.142Z,3.27
2024-03-07T02:40:53.120Z,3.32
2024-03-07T02:43:22.504Z,3.31
2024-03-07T02:45:51.479Z,3.24
2024-03-07T02:48:20.152Z,3.18
2024-03-07T02:50:49.112Z,3.11
2024-03-07T02:53:18.197Z,3.07
2024-03-07T02:55:46.577Z,3.03
2024-03-07T02:58:15.348Z,3.03
2024-03-07T03:00:43.479Z,3.05
2024-03-07T03:03:11.669Z,3.08
2024-03-07T03:05:40.482Z,3.12
2024-03-07T03:08:09.078Z,3.17
2024-03-07T03:10:37.405Z,3.16
2024-03-07T03:13:06.099Z,3.09
2024-03-07T03:15:34.632Z,3.08
2024-03-07T03:18:04.796Z,3.03
2024-03-07T03:20:37.076Z,2.97
2024-03-07T03:23:15.452Z,2.96
2024-03-07T03:25:52.474Z,2.96
2024-03-07T03:28:22.590Z,2.97
2024-03-07T03:30:53.001Z,2.97
2024-03-07T03:33:24.471Z,3.01
2024-03-07T03:35:52.843Z,3.05
2024-03-07T03:38:22.874Z,3.08
2024-03-07T03:40:51.303Z,3.12
2024-03-07T03:43:19.972Z,3.14
2024-03-07T03:45:48.980Z,3.11
2024-03-07T03:48:17.985Z,3.01
2024-03-07T03:50:48.129Z,2.91
2024-03-07T03:53:16.689Z,2.90
2024-03-07T03:55:45.331Z,2.89
2024-03-07T03:58:16.209Z,2.89
2024-03-07T04:00:44.544Z,2.89
2024-03-07T04:03:13.051Z,2.88
2024-03-07T04:05:42.472Z,2.88
2024-03-07T04:08:11.522Z,2.89
2024-03-07T04:10:41.016Z,2.84
2024-03-07T04:13:09.688Z,2.77
2024-03-07T04:15:39.465Z,2.75
2024-03-07T04:18:09.074Z,2.76
2024-03-07T04:20:37.764Z,2.78
2024-03-07T04:23:08.705Z,2.79
2024-03-07T04:25:38.133Z,2.73
2024-03-07T04:28:06.594Z,2.69
2024-03-07T04:30:34.851Z,2.71
2024-03-07T04:33:03.517Z,2.73
2024-03-07T04:35:32.606Z,2.72
2024-03-07T04:38:01.057Z,2.71
2024-03-07T04:40:29.577Z,2.67
2024-03-07T04:42:58.019Z,2.61
2024-03-07T04:45:26.436Z,2.53
2024-03-07T04:47:54.817Z,2.48
2024-03-07T04:50:23.205Z,2.41
2024-03-07T04:52:51.676Z,2.33
2024-03-07T04:55:20.731Z,2.28
2024-03-07T04:57:49.723Z,2.27
2024-03-07T05:00:21.300Z,2.35
2024-03-07T05:02:52.413Z,2.44
2024-03-07T05:05:24.644Z,2.54
2024-03-07T05:07:54.051Z,2.59
2024-03-07T05:10:22.782Z,2.56
2024-03-07T05:12:51.987Z,2.53
2024-03-07T05:15:20.545Z,2.49
2024-03-07T05:17:48.994Z,2.46
2024-03-07T05:20:18.037Z,2.51
2024-03-07T05:22:52.305Z,2.53
2024-03-07T05:25:23.297Z,2.55
2024-03-07T05:27:52.357Z,2.66
2024-03-07T05:30:21.084Z,2.72
2024-03-07T05:32:49.665Z,2.77
2024-03-07T05:35:21.647Z,2.80
2024-03-07T05:37:52.758Z,2.79
2024-03-07T05:40:21.963Z,2.73
2024-03-07T05:42:50.928Z,2.73
2024-03-07T05:45:19.584Z,2.75
2024-03-07T05:47:49.396Z,2.71
2024-03-07T05:50:19.655Z,2.65
2024-03-07T05:52:50.077Z,2.56
2024-03-07T05:55:20.909Z,2.59
2024-03-07T05:57:49.381Z,2.66
2024-03-07T06:00:29.017Z,2.75
2024-03-07T06:02:58.317Z,2.81
2024-03-07T06:05:28.388Z,2.88
2024-03-07T06:07:57.873Z,2.89
2024-03-07T06:10:26.495Z,2.87
2024-03-07T06:15:26.494Z,2.81
2024-03-07T06:17:55.356Z,2.80
2024-03-07T06:20:24.393Z,2.81
2024-03-07T06:22:56.401Z,2.79
2024-03-07T06:25:35.643Z,2.74
2024-03-07T06:28:10.914Z,2.70
2024-03-07T06:30:44.284Z,2.73
2024-03-07T06:33:13.999Z,2.79
2024-03-07T06:35:42.862Z,2.89
2024-03-07T06:38:11.607Z,2.94
2024-03-07T06:40:41.626Z,2.96
2024-03-07T06:43:13.945Z,2.90
2024-03-07T06:45:47.426Z,2.87
2024-03-07T06:48:16.011Z,2.91
2024-03-07T06:50:46.261Z,2.95
2024-03-07T06:53:14.586Z,2.96
2024-03-07T06:55:43.190Z,2.95
2024-03-07T06:58:11.767Z,2.96
2024-03-07T07:00:41.635Z,3.09
2024-03-07T07:03:11.628Z,3.24
2024-03-07T07:05:43.455Z,3.36
2024-03-07T07:08:11.779Z,3.45
2024-03-07T07:10:41.541Z,3.52
2024-03-07T07:13:11.685Z,3.56
2024-03-07T07:15:40.555Z,3.63
2024-03-07T07:18:08.998Z,3.70
2024-03-07T07:20:38.374Z,3.74
2024-03-07T07:23:07.561Z,3.71
2024-03-07T07:25:36.057Z,3.71
2024-03-07T07:28:10.536Z,3.73
2024-03-07T07:30:39.706Z,3.78
2024-03-07T07:33:09.169Z,3.82
2024-03-07T07:35:38.609Z,3.89
2024-03-07T07:38:08.447Z,3.97
2024-03-07T07:40:37.493Z,3.98
2024-03-07T07:43:06.457Z,3.96
2024-03-07T07:45:37.619Z,4.04
2024-03-07T07:48:06.737Z,4.15
2024-03-07T07:50:36.193Z,4.29
2024-03-07T07:53:10.316Z,4.34
2024-03-07T07:55:39.808Z,4.40
2024-03-07T07:58:08.736Z,4.45
2024-03-07T08:00:38.364Z,4.52
2024-03-07T08:03:07.611Z,4.67
2024-03-07T08:05:37.570Z,4.83
2024-03-07T08:08:08.384Z,4.97
2024-03-07T08:10:41.275Z,5.10
2024-03-07T08:13:11.980Z,5.12
2024-03-07T08:15:40.930Z,5.11
2024-03-07T08:18:12.773Z,5.08
2024-03-07T08:20:42.779Z,5.14
2024-03-07T08:23:12.149Z,5.22
2024-03-07T08:25:42.123Z,5.22
2024-03-07T08:28:10.921Z,5.24
2024-03-07T08:30:39.714Z,5.35
2024-03-07T08:33:08.898Z,5.56
2024-03-07T08:35:37.976Z,5.75
2024-03-07T08:38:06.605Z,5.89
2024-03-07T08:40:35.702Z,5.99
2024-03-07T08:43:05.143Z,6.11
2024-03-07T08:45:36.964Z,6.20
2024-03-07T08:48:06.728Z,6.21
2024-03-07T08:50:36.098Z,6.16
2024-03-07T08:53:08.758Z,6.17
2024-03-07T08:55:38.011Z,6.20
2024-03-07T08:58:10.080Z,6.31
2024-03-07T09:00:40.065Z,6.41
2024-03-07T09:03:13.716Z,6.47
2024-03-07T09:05:44.400Z,6.56
2024-03-07T09:08:12.819Z,6.71
2024-03-07T09:10:43.063Z,6.95
2024-03-07T09:13:12.492Z,7.20
2024-03-07T09:15:41.239Z,7.42
2024-03-07T09:18:10.418Z,7.64
2024-03-07T09:20:40.452Z,7.87
2024-03-07T09:23:09.023Z,8.22
2024-03-07T09:25:37.458Z,8.51
2024-03-07T09:28:07.723Z,8.64
2024-03-07T09:30:40.296Z,8.79
2024-03-07T09:33:12.396Z,8.94
2024-03-07T09:35:41.655Z,9.18
2024-03-07T09:38:10.282Z,9.33
2024-03-07T09:40:39.042Z,9.58
2024-03-07T09:43:11.214Z,10.24
2024-03-07T09:45:42.633Z,10.89
2024-03-07T09:48:14.373Z,11.74
2024-03-07T09:50:48.067Z,12.49
2024-03-07T09:53:18.329Z,13.18
2024-03-07T09:55:47.010Z,13.61
2024-03-07T09:58:20.961Z,14.24
2024-03-07T10:00:52.232Z,14.96
2024-03-07T10:03:25.162Z,15.59
2024-03-07T10:05:54.350Z,15.77
2024-03-07T10:08:25.345Z,16.08
2024-03-07T10:10:57.468Z,16.25
2024-03-07T10:13:27.184Z,16.37
2024-03-07T10:16:01.411Z,16.78
2024-03-07T10:18:30.415Z,17.02
2024-03-07T10:20:59.939Z,17.19
2024-03-07T10:23:28.580Z,17.10
2024-03-07T10:25:58.260Z,16.89
2024-03-07T10:28:29.361Z,17.05
2024-03-07T10:30:57.749Z,17.42
2024-03-07T10:33:29.847Z,17.60
2024-03-07T10:35:58.967Z,17.08
2024-03-07T10:38:27.309Z,16.75
2024-03-07T10:40:56.944Z,16.97
2024-03-07T10:43:30.586Z,17.25
2024-03-07T10:46:03.257Z,17.34
2024-03-07T10:48:40.536Z,17.14
2024-03-07T10:51:23.302Z,17.52
2024-03-07T10:54:15.550Z,17.14
2024-03-07T10:57:09.994Z,16.84
2024-03-07T10:59:43.352Z,16.95
2024-03-07T11:02:39.203Z,17.39
2024-03-07T11:05:13.481Z,18.08
2024-03-07T11:07:42.758Z,18.71
2024-03-07T11:10:13.069Z,18.97
2024-03-07T11:12:43.150Z,19.07
2024-03-07T11:15:16.486Z,18.42
2024-03-07T11:17:45.636Z,17.67
2024-03-07T11:20:23.304Z,17.23
2024-03-07T11:22:54.891Z,17.16
2024-03-07T11:25:27.142Z,17.01
2024-03-07T11:28:02.398Z,16.82
2024-03-07T11:30:30.838Z,16.92
2024-03-07T11:33:03.414Z,16.70
2024-03-07T11:35:38.217Z,16.57
2024-03-07T11:38:11.994Z,16.40
2024-03-07T11:40:40.245Z,16.16
2024-03-07T11:43:08.926Z,15.85
2024-03-07T11:45:46.494Z,15.73
2024-03-07T11:48:16.073Z,15.54
2024-03-07T11:50:44.532Z,15.54
2024-03-07T11:53:13.018Z,15.68
2024-03-07T11:55:49.475Z,15.64
2024-03-07T11:58:22.519Z,15.59
2024-03-07T12:00:53.282Z,15.55
2024-03-07T12:03:23.448Z,15.35
2024-03-07T12:05:53.727Z,15.18
2024-03-07T12:08:26.269Z,14.96
2024-03-07T12:10:58.583Z,14.72
2024-03-07T12:13:29.416Z,14.52
2024-03-07T12:16:00.237Z,14.44
2024-03-07T12:18:30.578Z,14.18
2024-03-07T12:21:00.450Z,13.83
2024-03-07T12:23:29.569Z,13.70
2024-03-07T12:26:05.728Z,13.77
2024-03-07T12:28:35.794Z,13.95
2024-03-07T12:31:07.297Z,14.18
2024-03-07T12:33:41.066Z,14.39
2024-03-07T12:36:12.087Z,14.49
2024-03-07T12:38:43.555Z,14.77
2024-03-07T12:41:16.891Z,15.25
2024-03-07T12:43:47.523Z,15.61
2024-03-07T12:46:17.234Z,15.67
2024-03-07T12:48:50.874Z,15.82
2024-03-07T12:51:20.935Z,15.97
2024-03-07T12:53:50.523Z,16.53
2024-03-07T12:56:20.266Z,17.04
2024-03-07T12:58:51.597Z,17.26
2024-03-07T13:01:22.236Z,17.37
2024-03-07T13:03:51.297Z,17.79
2024-03-07T13:06:38.172Z,18.14
2024-03-07T13:09:11.800Z,18.69
2024-03-07T13:11:48.084Z,19.35
2024-03-07T13:14:16.450Z,19.54
2024-03-07T13:16:44.914Z,19.28
2024-03-07T13:19:13.397Z,18.93
2024-03-07T13:21:41.920Z,18.89
2024-03-07T13:24:11.014Z,19.13
2024-03-07T13:26:41.161Z,19.44
2024-03-07T13:29:11.244Z,19.90
2024-03-07T13:31:41.614Z,20.07
2024-03-07T13:34:16.869Z,19.96
2024-03-07T13:36:46.436Z,19.97
2024-03-07T13:39:17.881Z,19.99
2024-03-07T13:41:49.654Z,20.28
2024-03-07T13:44:20.858Z,20.81
2024-03-07T13:46:49.381Z,21.01
2024-03-07T13:49:18.670Z,20.78
2024-03-07T13:51:54.761Z,20.81
2024-03-07T13:54:49.797Z,20.82
2024-03-07T13:57:44.715Z,20.37
2024-03-07T14:00:22.056Z,19.50
2024-03-07T14:02:53.245Z,19.56
2024-03-07T14:05:41.654Z,19.64
2024-03-07T14:08:34.855Z,19.68
2024-03-07T14:11:36.709Z,19.60
2024-03-07T14:14:40.725Z,19.69
2024-03-07T14:17:11.713Z,20.23
2024-03-07T14:19:56.178Z,20.08
2024-03-07T14:22:53.547Z,19.69
2024-03-07T14:25:56.662Z,19.16
2024-03-07T14:28:53.801Z,19.20
2024-03-07T14:31:23.963Z,19.39
2024-03-07T14:33:58.816Z,18.98
2024-03-07T14:36:47.045Z,18.51
2024-03-07T14:39:23.984Z,18.67
2024-03-07T14:42:05.549Z,18.58
2024-03-07T14:44:36.143Z,18.28
2024-03-07T14:47:07.528Z,18.38
2024-03-07T14:49:37.668Z,18.46
2024-03-07T14:52:17.241Z,18.48
2024-03-07T14:54:46.197Z,18.48
2024-03-07T14:57:14.879Z,18.49
2024-03-07T14:59:44.645Z,18.58
2024-03-07T15:02:15.389Z,18.68
2024-03-07T15:04:45.007Z,18.67
2024-03-07T15:07:13.279Z,18.60
2024-03-07T15:09:41.688Z,18.36
2024-03-07T15:12:10.526Z,17.74
2024-03-07T15:14:41.032Z,17.39
2024-03-07T15:17:10.674Z,17.01
2024-03-07T15:19:39.888Z,16.18
2024-03-07T15:22:08.548Z,14.95
2024-03-07T15:24:38.432Z,14.05
2024-03-07T15:27:06.998Z,13.31
2024-03-07T15:29:37.920Z,12.58
2024-03-07T15:32:09.503Z,11.74
2024-03-07T15:34:39.192Z,11.05
2024-03-07T15:37:09.159Z,10.52
2024-03-07T15:39:40.154Z,10.13
2024-03-07T15:42:10.695Z,9.76
2024-03-07T15:44:41.293Z,9.48
2024-03-07T15:47:09.829Z,9.14
2024-03-07T15:49:42.067Z,8.82
2024-03-07T15:52:10.977Z,8.43
2024-03-07T15:54:39.588Z,8.08
2024-03-07T15:57:08.020Z,7.83
2024-03-07T15:59:37.017Z,7.63
2024-03-07T16:02:06.082Z,7.47
2024-03-07T16:04:35.283Z,7.34
2024-03-07T16:07:04.833Z,7.19
2024-03-07T16:09:33.260Z,6.97
2024-03-07T16:12:03.165Z,6.78
2024-03-07T16:14:32.065Z,6.67
2024-03-07T16:17:00.572Z,6.57
2024-03-07T16:19:29.159Z,6.45
2024-03-07T16:21:57.664Z,6.37
2024-03-07T16:24:25.930Z,6.25
2024-03-07T16:26:54.571Z,6.20
2024-03-07T16:29:23.841Z,6.15
2024-03-07T16:31:52.474Z,6.10
2024-03-07T16:34:25.656Z,6.04
2024-03-07T16:36:57.819Z,5.98
2024-03-07T16:39:26.470Z,5.93
2024-03-07T16:41:54.997Z,5.87
2024-03-07T16:44:23.988Z,5.82
2024-03-07T16:46:52.806Z,5.78
2024-03-07T16:49:21.240Z,5.75
2024-03-07T16:51:50.166Z,5.72
2024-03-07T16:54:18.517Z,5.70
2024-03-07T16:56:47.182Z,5.69
2024-03-07T16:59:15.882Z,5.67
2024-03-07T17:01:46.728Z,5.67
2024-03-07T17:04:15.269Z,5.66
2024-03-07T17:06:43.849Z,5.66
2024-03-07T17:09:12.508Z,5.65
2024-03-07T17:11:42.688Z,5.64
2024-03-07T17:14:14.957Z,5.61
2024-03-07T17:16:44.441Z,5.59
2024-03-07T17:19:14.088Z,5.54
2024-03-07T17:21:42.680Z,5.47
2024-03-07T17:24:11.517Z,5.40
2024-03-07T17:26:40.378Z,5.33
2024-03-07T17:29:10.086Z,5.28
2024-03-07T17:31:38.346Z,5.23
2024-03-07T17:34:07.715Z,5.18
2024-03-07T17:36:36.114Z,5.13
2024-03-07T17:39:14.433Z,5.02
2024-03-07T17:41:43.465Z,4.91
2024-03-07T17:44:18.554Z,4.83
2024-03-07T17:46:47.504Z,4.73
2024-03-07T17:49:18.071Z,4.68
2024-03-07T17:51:46.368Z,4.66
2024-03-07T17:54:16.655Z,4.61
2024-03-07T17:56:45.254Z,4.55
2024-03-07T17:59:13.734Z,4.49
2024-03-07T18:01:43.906Z,4.38
2024-03-07T18:04:12.346Z,4.29
2024-03-07T18:06:40.859Z,4.19
2024-03-07T18:09:16.074Z,4.14
2024-03-07T18:11:44.490Z,4.05
2024-03-07T18:14:13.085Z,3.98
2024-03-07T18:16:41.384Z,3.88
2024-03-07T18:19:11.322Z,3.78
2024-03-07T18:21:40.173Z,3.70
2024-03-07T18:24:11.443Z,3.60
2024-03-07T18:26:39.996Z,3.49
2024-03-07T18:29:08.466Z,3.41
2024-03-07T18:31:37.275Z,3.37
2024-03-07T18:34:07.754Z,3.36
2024-03-07T18:36:36.333Z,3.31
2024-03-07T18:39:16.701Z,3.25
2024-03-07T18:41:52.176Z,3.18
2024-03-07T18:44:20.561Z,3.17
2024-03-07T18:46:49.045Z,3.15
2024-03-07T18:49:18.457Z,3.06
2024-03-07T18:51:50.220Z,3.02
2024-03-07T18:54:18.762Z,3.00
2024-03-07T18:56:47.981Z,3.01
2024-03-07T18:59:16.405Z,3.04
2024-03-07T19:01:45.077Z,3.04
2024-03-07T19:04:13.574Z,3.03
2024-03-07T19:06:42.635Z,3.01
2024-03-07T19:09:14.032Z,3.03
2024-03-07T19:11:47.047Z,3.04
2024-03-07T19:14:16.141Z,3.02
2024-03-07T19:16:52.812Z,2.99
2024-03-07T19:19:21.499Z,2.99
2024-03-07T19:21:50.365Z,2.97
2024-03-07T19:24:20.483Z,2.95
2024-03-07T19:26:52.264Z,2.97
2024-03-07T19:29:22.323Z,2.99
2024-03-07T19:31:54.083Z,3.02
2024-03-07T19:34:22.500Z,3.04
2024-03-07T19:36:55.024Z,3.07
2024-03-07T19:39:23.731Z,3.09
2024-03-07T19:41:58.990Z,3.09
2024-03-07T19:44:34.479Z,3.08
2024-03-07T19:47:06.226Z,3.05
2024-03-07T19:49:36.940Z,3.06
2024-03-07T19:52:11.608Z,3.08
2024-03-07T19:54:40.673Z,3.10
2024-03-07T19:57:12.553Z,3.16
2024-03-07T19:59:41.483Z,3.19
2024-03-07T20:02:10.013Z,3.22
2024-03-07T20:04:38.553Z,3.26
2024-03-07T20:07:12.005Z,3.29
2024-03-07T20:09:44.403Z,3.33
2024-03-07T20:12:17.669Z,3.34
2024-03-07T20:14:49.894Z,3.32
2024-03-07T20:17:18.316Z,3.34
2024-03-07T20:19:46.846Z,3.35
2024-03-07T20:22:15.686Z,3.32
2024-03-07T20:24:43.967Z,3.29
2024-03-07T20:27:12.839Z,3.25
2024-03-07T20:29:41.350Z,3.18
2024-03-07T20:32:10.364Z,3.15
2024-03-07T20:34:45.870Z,3.16
2024-03-07T20:37:14.213Z,3.17
2024-03-07T20:39:48.077Z,3.18
2024-03-07T20:42:19.750Z,3.19
2024-03-07T20:44:48.041Z,3.20
2024-03-07T20:47:16.403Z,3.19
2024-03-07T20:49:44.829Z,3.15
2024-03-07T20:52:13.104Z,3.17
2024-03-07T20:54:42.377Z,3.20
2024-03-07T20:57:11.080Z,3.22
2024-03-07T20:59:42.044Z,3.23
2024-03-07T21:02:10.510Z,3.25
2024-03-07T21:04:39.359Z,3.26
2024-03-07T21:07:09.773Z,3.26
2024-03-07T21:09:38.161Z,3.25
2024-03-07T21:12:09.632Z,3.25
2024-03-07T21:14:38.760Z,3.25
2024-03-07T21:17:12.424Z,3.26
2024-03-07T21:19:40.978Z,3.26
2024-03-07T21:22:09.933Z,3.22
2024-03-07T21:24:38.198Z,3.15
2024-03-07T21:27:07.561Z,3.08
2024-03-07T21:29:36.215Z,3.05
2024-03-07T21:32:05.476Z,3.02
2024-03-07T21:34:33.914Z,2.98
2024-03-07T21:37:03.153Z,2.91
2024-03-07T21:39:31.889Z,2.84
2024-03-07T21:42:00.454Z,2.80
2024-03-07T21:44:30.656Z,2.83
2024-03-07T21:47:00.034Z,2.86
2024-03-07T21:49:28.564Z,2.87
2024-03-07T21:51:57.103Z,2.85
2024-03-07T21:54:25.478Z,2.86
2024-03-07T21:56:54.109Z,2.84
2024-03-07T21:59:22.812Z,2.81
2024-03-07T22:01:51.295Z,2.79
2024-03-07T22:04:20.046Z,2.77
2024-03-07T22:06:48.976Z,2.78
2024-03-07T22:09:17.554Z,2.79
2024-03-07T22:11:46.059Z,2.81
2024-03-07T22:14:18.730Z,2.85
2024-03-07T22:16:54.897Z,2.87
2024-03-07T22:19:23.564Z,2.89
2024-03-07T22:21:51.901Z,2.90
2024-03-07T22:24:20.604Z,2.91
2024-03-07T22:26:49.320Z,2.93
2024-03-07T22:29:17.905Z,2.93
2024-03-07T22:31:46.402Z,2.92
2024-03-07T22:34:17.875Z,2.92
2024-03-07T22:36:53.549Z,2.94
2024-03-07T22:39:21.996Z,2.96
2024-03-07T22:41:51.196Z,2.99
2024-03-07T22:44:19.800Z,3.02
2024-03-07T22:46:48.574Z,3.03
2024-03-07T22:49:17.329Z,3.04
2024-03-07T22:51:45.563Z,3.03
2024-03-07T22:54:14.374Z,3.03
2024-03-07T22:56:44.655Z,3.03
2024-03-07T22:59:13.430Z,3.04
2024-03-07T23:01:42.839Z,3.03
2024-03-07T23:04:14.377Z,3.04
2024-03-07T23:06:43.068Z,3.02
2024-03-07T23:09:11.760Z,3.02
2024-03-07T23:11:41.094Z,3.03
2024-03-07T23:14:09.575Z,3.05
2024-03-07T23:16:38.022Z,3.09
2024-03-07T23:19:06.580Z,3.12
2024-03-07T23:21:35.063Z,3.12
2024-03-07T23:24:03.837Z,3.09
2024-03-07T23:26:33.437Z,3.06
2024-03-07T23:29:03.097Z,3.03
2024-03-07T23:31:31.670Z,2.98
2024-03-07T23:34:00.171Z,2.95
2024-03-07T23:36:30.489Z,2.95
2024-03-07T23:38:58.937Z,2.93
2024-03-07T23:41:27.368Z,2.93
2024-03-07T23:43:56.292Z,2.92
2024-03-07T23:46:25.239Z,2.91
2024-03-07T23:48:54.042Z,2.90
2024-03-07T23:51:22.908Z,2.87
2024-03-07T23:53:51.633Z,2.85
2024-03-07T23:56:19.924Z,2.81
2024-03-07T23:58:48.731Z,2.77
